createdAt,value
2023-05-11T00:01:46.057Z,14.38
2023-05-11T00:04:12.796Z,14.38
2023-05-11T00:06:39.485Z,14.38
2023-05-11T00:09:06.750Z,14.40
2023-05-11T00:11:33.376Z,14.40
2023-05-11T00:14:00.062Z,14.39
2023-05-11T00:16:26.848Z,14.34
2023-05-11T00:18:53.582Z,14.30
2023-05-11T00:21:20.658Z,14.22
2023-05-11T00:23:47.290Z,14.17
2023-05-11T00:26:13.946Z,14.13
2023-05-11T00:28:43.013Z,14.10
2023-05-11T00:31:09.666Z,14.08
2023-05-11T00:33:36.537Z,14.04
2023-05-11T00:36:04.125Z,13.95
2023-05-11T00:38:31.338Z,13.95
2023-05-11T00:40:58.442Z,13.97
2023-05-11T00:43:25.127Z,14.00
2023-05-11T00:45:53.589Z,14.02
2023-05-11T00:48:20.334Z,14.01
2023-05-11T00:50:47.866Z,14.02
2023-05-11T00:53:14.852Z,14.00
2023-05-11T00:55:42.147Z,13.98
2023-05-11T00:58:08.913Z,13.94
2023-05-11T01:00:36.859Z,13.95
2023-05-11T01:03:04.777Z,13.95
2023-05-11T01:05:58.873Z,13.95
2023-05-11T01:08:42.555Z,13.95
2023-05-11T01:11:18.289Z,13.92
2023-05-11T01:14:27.219Z,13.91
2023-05-11T01:16:59.543Z,13.91
2023-05-11T01:19:35.262Z,13.89
2023-05-11T01:22:13.876Z,13.88
2023-05-11T01:24:56.028Z,13.86
2023-05-11T01:28:00.151Z,13.85
2023-05-11T01:30:29.250Z,13.82
2023-05-11T01:33:00.364Z,13.82
2023-05-11T01:35:31.381Z,13.82
2023-05-11T01:38:01.581Z,13.83
2023-05-11T01:40:32.331Z,13.84
2023-05-11T01:43:03.929Z,13.86
2023-05-11T01:45:34.709Z,13.86
2023-05-11T01:48:06.112Z,13.82
2023-05-11T01:50:34.180Z,13.79
2023-05-11T01:53:04.760Z,13.79
2023-05-11T01:55:35.146Z,13.77
2023-05-11T01:58:04.012Z,13.76
2023-05-11T02:00:33.154Z,13.77
2023-05-11T02:03:02.553Z,13.77
2023-05-11T02:05:30.987Z,13.76
2023-05-11T02:08:00.375Z,13.75
2023-05-11T02:10:29.036Z,13.75
2023-05-11T02:12:56.586Z,13.73
2023-05-11T02:15:25.175Z,13.74
2023-05-11T02:17:53.506Z,13.74
2023-05-11T02:20:21.221Z,13.72
2023-05-11T02:22:49.787Z,13.70
2023-05-11T02:25:17.178Z,13.69
2023-05-11T02:27:44.213Z,13.67
2023-05-11T02:30:11.712Z,13.65
2023-05-11T02:32:47.841Z,13.63
2023-05-11T02:35:20.901Z,13.61
2023-05-11T02:37:49.660Z,13.61
2023-05-11T02:40:20.094Z,13.60
2023-05-11T02:42:53.700Z,13.60
2023-05-11T02:45:20.561Z,13.58
2023-05-11T02:47:53.745Z,13.57
2023-05-11T02:50:24.480Z,13.56
2023-05-11T02:52:54.952Z,13.56
2023-05-11T02:55:23.565Z,13.54
2023-05-11T02:57:50.737Z,13.53
2023-05-11T03:00:18.152Z,13.51
2023-05-11T03:02:45.477Z,13.47
2023-05-11T03:05:12.307Z,13.45
2023-05-11T03:07:39.073Z,13.46
2023-05-11T03:10:08.317Z,13.46
2023-05-11T03:12:38.757Z,13.45
2023-05-11T03:15:07.209Z,13.43
2023-05-11T03:17:36.051Z,13.42
2023-05-11T03:20:04.396Z,13.40
2023-05-11T03:22:33.076Z,13.38
2023-05-11T03:25:02.709Z,13.35
2023-05-11T03:27:32.028Z,13.35
2023-05-11T03:30:00.806Z,13.35
2023-05-11T03:32:28.055Z,13.35
2023-05-11T03:34:54.929Z,13.37
2023-05-11T03:37:22.688Z,13.39
2023-05-11T03:39:54.941Z,13.39
2023-05-11T03:42:22.686Z,13.36
2023-05-11T03:44:53.089Z,13.29
2023-05-11T03:47:21.156Z,13.27
2023-05-11T03:49:49.815Z,13.28
2023-05-11T03:52:17.421Z,13.28
2023-05-11T03:54:44.229Z,13.29
2023-05-11T03:57:11.454Z,13.31
2023-05-11T03:59:41.756Z,13.35
2023-05-11T04:02:08.955Z,13.37
2023-05-11T04:04:35.633Z,13.39
2023-05-11T04:07:02.307Z,13.43
2023-05-11T04:09:29.059Z,13.45
2023-05-11T04:11:56.452Z,13.40
2023-05-11T04:14:23.140Z,13.28
2023-05-11T04:16:49.810Z,13.19
2023-05-11T04:19:16.850Z,13.09
2023-05-11T04:21:43.615Z,13.07
2023-05-11T04:24:10.385Z,13.07
2023-05-11T04:26:36.966Z,13.05
2023-05-11T04:29:04.001Z,12.98
2023-05-11T04:31:31.043Z,12.90
2023-05-11T04:33:58.049Z,12.89
2023-05-11T04:36:25.111Z,12.93
2023-05-11T04:38:53.454Z,12.95
2023-05-11T04:41:20.885Z,13.01
2023-05-11T04:43:48.118Z,13.03
2023-05-11T04:46:15.478Z,13.07
2023-05-11T04:48:42.394Z,13.05
2023-05-11T04:51:10.048Z,13.04
2023-05-11T04:53:42.422Z,13.06
2023-05-11T04:56:09.780Z,13.08
2023-05-11T04:58:36.422Z,13.04
2023-05-11T05:01:03.129Z,13.00
2023-05-11T05:03:30.168Z,13.04
2023-05-11T05:05:56.982Z,13.09
2023-05-11T05:08:23.624Z,13.13
2023-05-11T05:10:50.348Z,13.16
2023-05-11T05:13:17.344Z,13.18
2023-05-11T05:15:43.999Z,13.16
2023-05-11T05:18:10.996Z,13.16
2023-05-11T05:20:39.064Z,13.20
2023-05-11T05:23:05.902Z,13.25
2023-05-11T05:25:33.944Z,13.29
2023-05-11T05:28:00.995Z,13.34
2023-05-11T05:30:27.918Z,13.36
2023-05-11T05:32:55.253Z,13.37
2023-05-11T05:35:22.428Z,13.40
2023-05-11T05:37:49.505Z,13.43
2023-05-11T05:40:16.942Z,13.46
2023-05-11T05:42:51.159Z,13.49
2023-05-11T05:45:21.072Z,13.53
2023-05-11T05:47:49.398Z,13.56
2023-05-11T05:50:16.853Z,13.57
2023-05-11T05:52:44.058Z,13.59
2023-05-11T05:55:11.161Z,13.51
2023-05-11T05:57:39.020Z,13.42
2023-05-11T06:00:09.644Z,13.40
2023-05-11T06:02:42.154Z,13.40
2023-05-11T06:05:15.365Z,13.38
2023-05-11T06:07:42.992Z,13.33
2023-05-11T06:10:09.791Z,13.34
2023-05-11T06:12:36.810Z,13.35
2023-05-11T06:15:03.645Z,13.40
2023-05-11T06:17:31.177Z,13.45
2023-05-11T06:19:57.784Z,13.50
2023-05-11T06:22:26.640Z,13.56
2023-05-11T06:24:53.371Z,13.59
2023-05-11T06:27:20.949Z,13.54
2023-05-11T06:29:48.892Z,13.45
2023-05-11T06:32:15.752Z,13.42
2023-05-11T06:34:42.685Z,13.45
2023-05-11T06:37:09.894Z,13.50
2023-05-11T06:39:40.063Z,13.54
2023-05-11T06:42:08.324Z,13.55
2023-05-11T06:44:34.939Z,13.54
2023-05-11T06:47:01.624Z,13.54
2023-05-11T06:49:28.827Z,13.57
2023-05-11T06:51:55.428Z,13.57
2023-05-11T06:54:22.734Z,13.54
2023-05-11T06:56:49.478Z,13.57
2023-05-11T06:59:16.079Z,13.57
2023-05-11T07:01:43.511Z,13.60
2023-05-11T07:04:10.255Z,13.64
2023-05-11T07:06:37.160Z,13.70
2023-05-11T07:09:03.927Z,13.72
2023-05-11T07:11:31.036Z,13.68
2023-05-11T07:13:57.680Z,13.65
2023-05-11T07:16:24.529Z,13.70
2023-05-11T07:18:51.192Z,13.74
2023-05-11T07:21:17.947Z,13.76
2023-05-11T07:23:44.657Z,13.76
2023-05-11T07:26:11.385Z,13.76
2023-05-11T07:28:38.165Z,13.77
2023-05-11T07:31:05.570Z,13.76
2023-05-11T07:33:34.697Z,13.77
2023-05-11T07:36:01.424Z,13.86
2023-05-11T07:38:28.203Z,13.87
2023-05-11T07:40:55.012Z,13.80
2023-05-11T07:43:32.228Z,13.79
2023-05-11T07:45:58.857Z,13.83
2023-05-11T07:48:25.503Z,13.86
2023-05-11T07:50:52.171Z,13.91
2023-05-11T07:53:18.902Z,13.92
2023-05-11T07:55:45.536Z,13.90
2023-05-11T07:58:12.189Z,13.91
2023-05-11T08:00:38.989Z,13.93
2023-05-11T08:03:06.570Z,13.97
2023-05-11T08:05:37.369Z,13.97
2023-05-11T08:08:05.206Z,13.98
2023-05-11T08:10:32.067Z,13.98
2023-05-11T08:12:59.079Z,13.97
2023-05-11T08:15:25.732Z,13.95
2023-05-11T08:17:52.459Z,13.95
2023-05-11T08:20:19.436Z,14.03
2023-05-11T08:22:46.398Z,14.09
2023-05-11T08:25:13.820Z,14.10
2023-05-11T08:27:40.568Z,14.09
2023-05-11T08:30:11.339Z,14.10
2023-05-11T08:32:54.586Z,14.18
2023-05-11T08:35:25.169Z,14.21
2023-05-11T08:37:51.833Z,14.26
2023-05-11T08:40:20.335Z,14.28
2023-05-11T08:42:49.555Z,14.35
2023-05-11T08:45:18.030Z,14.41
2023-05-11T08:47:45.668Z,14.39
2023-05-11T08:50:12.826Z,14.34
2023-05-11T08:52:40.927Z,14.35
2023-05-11T08:55:09.422Z,14.36
2023-05-11T08:57:38.598Z,14.33
2023-05-11T09:00:07.448Z,14.32
2023-05-11T09:02:34.741Z,14.34
2023-05-11T09:05:04.291Z,14.38
2023-05-11T09:07:31.687Z,14.42
2023-05-11T09:09:58.481Z,14.45
2023-05-11T09:12:28.472Z,14.46
2023-05-11T09:15:01.796Z,14.47
2023-05-11T09:17:29.045Z,14.51
2023-05-11T09:20:00.988Z,14.50
2023-05-11T09:22:30.834Z,14.46
2023-05-11T09:25:01.822Z,14.45
2023-05-11T09:27:28.548Z,14.46
2023-05-11T09:29:55.177Z,14.49
2023-05-11T09:32:21.878Z,14.52
2023-05-11T09:34:48.686Z,14.51
2023-05-11T09:37:19.353Z,14.53
2023-05-11T09:40:13.905Z,14.62
2023-05-11T09:42:32.864Z,14.67
2023-05-11T09:44:59.595Z,14.70
2023-05-11T09:47:27.693Z,14.73
2023-05-11T09:49:54.420Z,14.69
2023-05-11T09:52:21.296Z,14.63
2023-05-11T09:54:50.769Z,14.62
2023-05-11T09:57:30.697Z,14.68
2023-05-11T09:59:59.576Z,14.70
2023-05-11T10:02:29.422Z,14.70
2023-05-11T10:04:59.258Z,14.66
2023-05-11T10:07:30.506Z,14.70
2023-05-11T10:10:04.750Z,14.75
2023-05-11T10:12:33.653Z,14.75
2023-05-11T10:15:08.645Z,14.75
2023-05-11T10:17:37.065Z,14.80
2023-05-11T10:20:07.547Z,14.84
2023-05-11T10:22:34.260Z,14.86
2023-05-11T10:25:03.135Z,14.89
2023-05-11T10:27:31.900Z,14.86
2023-05-11T10:29:58.514Z,14.82
2023-05-11T10:32:25.894Z,14.79
2023-05-11T10:34:52.678Z,14.77
2023-05-11T10:37:21.210Z,14.80
2023-05-11T10:39:50.708Z,14.82
2023-05-11T10:42:45.348Z,14.82
2023-05-11T10:45:37.063Z,14.75
2023-05-11T10:48:42.725Z,14.74
2023-05-11T10:51:43.221Z,14.70
2023-05-11T10:54:32.993Z,14.67
2023-05-11T10:57:18.426Z,14.69
2023-05-11T10:59:54.515Z,14.69
2023-05-11T11:02:21.763Z,14.70
2023-05-11T11:04:50.923Z,14.73
2023-05-11T11:07:22.291Z,14.77
2023-05-11T11:09:52.553Z,14.81
2023-05-11T11:12:20.758Z,14.88
2023-05-11T11:14:59.007Z,14.90
2023-05-11T11:17:31.337Z,14.90
2023-05-11T11:20:01.208Z,14.92
2023-05-11T11:22:38.631Z,15.00
2023-05-11T11:25:07.031Z,15.05
2023-05-11T11:27:45.902Z,15.05
2023-05-11T11:30:30.816Z,15.08
2023-05-11T11:33:10.414Z,15.11
2023-05-11T11:35:42.949Z,15.10
2023-05-11T11:38:13.894Z,15.12
2023-05-11T11:43:20.212Z,15.09
2023-05-11T11:45:54.900Z,15.12
2023-05-11T11:48:31.894Z,15.13
2023-05-11T11:51:04.382Z,15.18
2023-05-11T11:53:44.822Z,15.14
2023-05-11T11:56:14.208Z,15.06
2023-05-11T11:58:44.615Z,15.00
2023-05-11T12:01:22.194Z,14.96
2023-05-11T12:04:04.033Z,14.95
2023-05-11T12:06:39.272Z,14.98
2023-05-11T12:09:06.839Z,15.02
2023-05-11T12:11:34.628Z,15.10
2023-05-11T12:14:02.673Z,15.15
2023-05-11T12:16:29.804Z,15.15
2023-05-11T12:19:02.311Z,15.18
2023-05-11T12:21:33.785Z,15.11
2023-05-11T12:24:05.707Z,15.03
2023-05-11T12:26:34.515Z,14.98
2023-05-11T12:29:08.746Z,15.03
2023-05-11T12:31:40.511Z,15.10
2023-05-11T12:34:07.390Z,15.16
2023-05-11T12:36:34.892Z,15.20
2023-05-11T12:39:01.575Z,15.27
2023-05-11T12:41:28.175Z,15.29
2023-05-11T12:43:56.228Z,15.34
2023-05-11T12:46:23.812Z,15.32
2023-05-11T12:48:52.528Z,15.34
2023-05-11T12:51:49.864Z,15.32
2023-05-11T12:54:37.853Z,15.35
2023-05-11T12:57:06.534Z,15.44
2023-05-11T12:59:37.765Z,15.47
2023-05-11T13:02:13.776Z,15.40
2023-05-11T13:04:42.729Z,15.35
2023-05-11T13:07:10.679Z,15.23
2023-05-11T13:09:38.226Z,15.20
2023-05-11T13:12:13.912Z,15.22
2023-05-11T13:14:40.628Z,15.24
2023-05-11T13:17:07.630Z,15.23
2023-05-11T13:19:34.814Z,15.20
2023-05-11T13:22:01.459Z,15.21
2023-05-11T13:24:28.085Z,15.24
2023-05-11T13:26:56.305Z,15.30
2023-05-11T13:29:23.096Z,15.41
2023-05-11T13:31:52.337Z,15.42
2023-05-11T13:34:20.442Z,15.43
2023-05-11T13:36:47.956Z,15.45
2023-05-11T13:39:14.912Z,15.47
2023-05-11T13:41:41.592Z,15.44
2023-05-11T13:44:08.385Z,15.40
2023-05-11T13:46:35.471Z,15.43
2023-05-11T13:49:02.282Z,15.47
2023-05-11T13:51:29.022Z,15.53
2023-05-11T13:53:55.689Z,15.53
2023-05-11T13:56:22.421Z,15.49
2023-05-11T13:58:49.099Z,15.50
2023-05-11T14:01:16.379Z,15.53
2023-05-11T14:03:43.202Z,15.51
2023-05-11T14:06:10.041Z,15.54
2023-05-11T14:08:36.693Z,15.58
2023-05-11T14:11:03.385Z,15.61
2023-05-11T14:13:30.115Z,15.65
2023-05-11T14:15:57.304Z,15.71
2023-05-11T14:18:26.116Z,15.70
2023-05-11T14:20:54.105Z,15.69
2023-05-11T14:23:20.733Z,15.68
2023-05-11T14:25:47.409Z,15.65
2023-05-11T14:28:14.073Z,15.63
2023-05-11T14:30:40.842Z,15.59
2023-05-11T14:33:07.626Z,15.59
2023-05-11T14:35:34.286Z,15.57
2023-05-11T14:38:02.187Z,15.50
2023-05-11T14:40:28.891Z,15.46
2023-05-11T14:42:55.770Z,15.45
2023-05-11T14:45:23.494Z,15.44
2023-05-11T14:47:50.535Z,15.41
2023-05-11T14:50:17.213Z,15.38
2023-05-11T14:52:44.036Z,15.38
2023-05-11T14:55:10.688Z,15.38
2023-05-11T14:57:38.466Z,15.37
2023-05-11T15:00:05.975Z,15.38
2023-05-11T15:02:32.649Z,15.37
2023-05-11T15:04:59.347Z,15.34
2023-05-11T15:07:26.916Z,15.34
2023-05-11T15:09:53.995Z,15.34
2023-05-11T15:12:20.618Z,15.36
2023-05-11T15:14:47.253Z,15.38
2023-05-11T15:17:13.831Z,15.39
2023-05-11T15:19:40.597Z,15.37
2023-05-11T15:22:07.429Z,15.37
2023-05-11T15:24:34.149Z,15.40
2023-05-11T15:27:00.808Z,15.41
2023-05-11T15:29:27.400Z,15.45
2023-05-11T15:31:54.081Z,15.49
2023-05-11T15:34:20.822Z,15.51
2023-05-11T15:36:48.984Z,15.53
2023-05-11T15:39:17.023Z,15.50
2023-05-11T15:41:44.170Z,15.49
2023-05-11T15:44:11.097Z,15.49
2023-05-11T15:46:39.016Z,15.49
2023-05-11T15:49:06.362Z,15.45
2023-05-11T15:51:32.996Z,15.45
2023-05-11T15:53:59.694Z,15.44
2023-05-11T15:56:26.488Z,15.44
2023-05-11T15:58:53.198Z,15.41
2023-05-11T16:01:19.973Z,15.42
2023-05-11T16:03:47.058Z,15.44
2023-05-11T16:06:13.812Z,15.40
2023-05-11T16:08:41.701Z,15.38
2023-05-11T16:11:08.374Z,15.36
2023-05-11T16:13:34.980Z,15.39
2023-05-11T16:16:01.875Z,15.37
2023-05-11T16:18:28.888Z,15.33
2023-05-11T16:20:56.594Z,15.28
2023-05-11T16:23:25.522Z,15.25
2023-05-11T16:25:52.631Z,15.25
2023-05-11T16:28:19.894Z,15.26
2023-05-11T16:30:46.622Z,15.27
2023-05-11T16:33:13.428Z,15.28
2023-05-11T16:35:40.215Z,15.27
2023-05-11T16:38:06.964Z,15.29
2023-05-11T16:40:33.699Z,15.30
2023-05-11T16:43:00.436Z,15.32
2023-05-11T16:45:27.182Z,15.32
2023-05-11T16:47:53.823Z,15.31
2023-05-11T16:50:21.600Z,15.34
2023-05-11T16:52:48.837Z,15.35
2023-05-11T16:55:16.174Z,15.33
2023-05-11T16:57:43.928Z,15.30
2023-05-11T17:00:11.834Z,15.31
2023-05-11T17:02:38.536Z,15.32
2023-05-11T17:05:07.184Z,15.35
2023-05-11T17:07:34.013Z,15.31
2023-05-11T17:10:00.579Z,15.31
2023-05-11T17:12:29.495Z,15.28
2023-05-11T17:14:57.487Z,15.22
2023-05-11T17:17:24.652Z,15.18
2023-05-11T17:19:51.916Z,15.15
2023-05-11T17:22:19.189Z,15.08
2023-05-11T17:24:46.861Z,15.05
2023-05-11T17:27:13.555Z,15.04
2023-05-11T17:29:43.154Z,15.03
2023-05-11T17:32:10.021Z,15.03
2023-05-11T17:34:37.046Z,15.03
2023-05-11T17:37:03.820Z,15.07
2023-05-11T17:39:30.920Z,15.09
2023-05-11T17:41:57.973Z,15.08
2023-05-11T17:44:24.689Z,15.09
2023-05-11T17:46:51.989Z,15.07
2023-05-11T17:49:18.572Z,15.06
2023-05-11T17:51:46.484Z,15.07
2023-05-11T17:54:13.758Z,15.06
2023-05-11T17:56:40.323Z,15.05
2023-05-11T17:59:07.240Z,15.06
2023-05-11T18:01:34.742Z,15.06
2023-05-11T18:04:02.603Z,15.05
2023-05-11T18:06:29.684Z,15.04
2023-05-11T18:08:56.832Z,15.04
2023-05-11T18:11:23.740Z,15.04
2023-05-11T18:13:50.493Z,15.03
2023-05-11T18:16:17.755Z,15.01
2023-05-11T18:18:45.061Z,14.99
2023-05-11T18:21:11.882Z,14.99
2023-05-11T18:23:38.688Z,14.99
2023-05-11T18:26:06.541Z,14.97
2023-05-11T18:28:33.303Z,14.93
2023-05-11T18:31:00.266Z,14.91
2023-05-11T18:33:27.499Z,14.88
2023-05-11T18:35:54.316Z,14.87
2023-05-11T18:38:21.023Z,14.86
2023-05-11T18:40:47.907Z,14.83
2023-05-11T18:43:14.496Z,14.80
2023-05-11T18:45:41.281Z,14.81
2023-05-11T18:48:08.410Z,14.85
2023-05-11T18:50:35.878Z,14.90
2023-05-11T18:53:02.614Z,14.93
2023-05-11T18:55:31.258Z,14.91
2023-05-11T18:58:02.351Z,14.87
2023-05-11T19:00:28.993Z,14.82
2023-05-11T19:02:55.750Z,14.83
2023-05-11T19:05:22.463Z,14.82
2023-05-11T19:07:49.085Z,14.77
2023-05-11T19:10:18.137Z,14.74
2023-05-11T19:12:45.106Z,14.74
2023-05-11T19:15:11.793Z,14.72
2023-05-11T19:17:38.407Z,14.69
2023-05-11T19:20:06.084Z,14.70
2023-05-11T19:22:32.676Z,14.68
2023-05-11T19:25:00.607Z,14.68
2023-05-11T19:27:27.198Z,14.67
2023-05-11T19:29:53.815Z,14.67
2023-05-11T19:32:20.476Z,14.69
2023-05-11T19:34:47.095Z,14.69
2023-05-11T19:37:13.656Z,14.68
2023-05-11T19:39:40.265Z,14.68
2023-05-11T19:42:07.121Z,14.67
2023-05-11T19:44:36.540Z,14.72
2023-05-11T19:47:03.294Z,14.77
2023-05-11T19:49:29.992Z,14.79
2023-05-11T19:51:56.735Z,14.76
2023-05-11T19:54:23.357Z,14.70
2023-05-11T19:56:49.929Z,14.70
2023-05-11T19:59:16.654Z,14.68
2023-05-11T20:01:43.305Z,14.63
2023-05-11T20:04:12.664Z,14.61
2023-05-11T20:06:40.006Z,14.60
2023-05-11T20:09:07.323Z,14.57
2023-05-11T20:11:33.948Z,14.53
2023-05-11T20:14:00.855Z,14.50
2023-05-11T20:16:30.441Z,14.47
2023-05-11T20:18:59.377Z,14.46
2023-05-11T20:21:26.499Z,14.49
2023-05-11T20:23:53.133Z,14.49
2023-05-11T20:26:19.718Z,14.50
2023-05-11T20:28:46.430Z,14.46
2023-05-11T20:31:13.092Z,14.43
2023-05-11T20:36:09.476Z,14.35
2023-05-11T20:38:36.237Z,14.33
2023-05-11T20:41:02.916Z,14.35
2023-05-11T20:43:29.554Z,14.33
2023-05-11T20:46:04.823Z,14.29
2023-05-11T20:48:40.497Z,14.27
2023-05-11T20:51:08.411Z,14.25
2023-05-11T20:53:35.087Z,14.26
2023-05-11T20:56:03.027Z,14.28
2023-05-11T20:58:31.729Z,14.28
2023-05-11T21:00:58.662Z,14.25
2023-05-11T21:03:26.883Z,14.23
2023-05-11T21:05:53.827Z,14.23
2023-05-11T21:08:20.791Z,14.22
2023-05-11T21:10:47.590Z,14.24
2023-05-11T21:13:14.273Z,14.25
2023-05-11T21:15:41.426Z,14.28
2023-05-11T21:18:08.895Z,14.32
2023-05-11T21:20:36.240Z,14.38
2023-05-11T21:23:03.850Z,14.43
2023-05-11T21:25:30.565Z,14.48
2023-05-11T21:27:57.328Z,14.50
2023-05-11T21:30:23.933Z,14.50
2023-05-11T21:32:50.791Z,14.50
2023-05-11T21:35:18.011Z,14.51
2023-05-11T21:37:49.423Z,14.52
2023-05-11T21:40:17.351Z,14.52
2023-05-11T21:42:44.404Z,14.56
2023-05-11T21:45:12.159Z,14.62
2023-05-11T21:47:39.397Z,14.67
2023-05-11T21:50:08.702Z,14.70
2023-05-11T21:52:36.871Z,14.64
2023-05-11T21:55:03.953Z,14.57
2023-05-11T21:57:30.594Z,14.53
2023-05-11T21:59:57.246Z,14.51
2023-05-11T22:02:23.828Z,14.48
2023-05-11T22:04:50.596Z,14.48
2023-05-11T22:07:17.699Z,14.51
2023-05-11T22:09:44.331Z,14.54
2023-05-11T22:12:11.200Z,14.56
2023-05-11T22:14:37.865Z,14.54
2023-05-11T22:17:04.737Z,14.49
2023-05-11T22:19:31.416Z,14.46
2023-05-11T22:21:58.087Z,14.46
2023-05-11T22:24:27.179Z,14.48
2023-05-11T22:26:54.744Z,14.48
2023-05-11T22:29:22.345Z,14.51
2023-05-11T22:31:51.892Z,14.54
2023-05-11T22:34:21.056Z,14.57
2023-05-11T22:36:47.681Z,14.60
2023-05-11T22:39:14.339Z,14.64
2023-05-11T22:41:40.982Z,14.67
2023-05-11T22:44:08.431Z,14.69
2023-05-11T22:46:42.203Z,14.72
2023-05-11T22:49:09.203Z,14.74
2023-05-11T22:51:35.895Z,14.75
2023-05-11T22:54:03.519Z,14.76
2023-05-11T22:56:31.729Z,14.78
2023-05-11T22:59:01.629Z,14.79
2023-05-11T23:01:28.796Z,14.81
2023-05-11T23:03:55.800Z,14.81
2023-05-11T23:06:22.420Z,14.80
2023-05-11T23:08:49.061Z,14.80
2023-05-11T23:11:15.708Z,14.80
2023-05-11T23:13:43.110Z,14.78
2023-05-11T23:16:10.634Z,14.73
2023-05-11T23:18:37.916Z,14.65
2023-05-11T23:21:05.035Z,14.59
2023-05-11T23:23:31.838Z,14.59
2023-05-11T23:25:58.588Z,14.61
2023-05-11T23:28:25.242Z,14.64
2023-05-11T23:30:51.837Z,14.67
2023-05-11T23:33:18.606Z,14.69
2023-05-11T23:35:45.208Z,14.69
2023-05-11T23:38:12.286Z,14.69
2023-05-11T23:40:38.969Z,14.69
2023-05-11T23:43:05.611Z,14.65
2023-05-11T23:45:32.280Z,14.61
2023-05-11T23:47:58.885Z,14.59
2023-05-11T23:50:25.520Z,14.53
2023-05-11T23:52:52.251Z,14.43
2023-05-11T23:55:18.995Z,14.35
2023-05-11T23:57:45.772Z,14.30
